Time;durP1;ratioP1;P1;durP2;ratioP2;P2;SDS_P1;SDS_P2;PMS_P1;PMS_P2;Temp;Humidity;BMP_temperature;BMP_pressure;BME280_temperature;BME280_humidity;BME280_pressure;Samples;Min_cycle;Max_cycle;Signal;HPM_P1;HPM_P2
2022/08/13 00:00:52;;;;;;;1.60;1.50;;;;;;;20.64;42.27;101536.91;5056354;28;20396;-90
2022/08/13 00:03:18;;;;;;;1.58;1.50;;;;;;;20.58;42.67;101536.34;5056475;28;20083;-90
2022/08/13 00:05:43;;;;;;;1.73;1.63;;;;;;;20.50;42.71;101532.28;5055974;28;20052;-91
2022/08/13 00:08:09;;;;;;;1.43;1.33;;;;;;;20.43;42.81;101538.75;5056150;28;20604;-90
2022/08/13 00:10:34;;;;;;;2.00;1.50;;;;;;;20.34;43.13;101539.19;5056221;28;20465;-90
2022/08/13 00:13:03;;;;;;;1.30;1.30;;;;;;;20.25;43.71;101537.81;5055659;28;20033;-90
2022/08/13 00:15:31;;;;;;;1.58;1.48;;;;;;;20.18;44.08;101544.28;5056014;28;20044;-89
2022/08/13 00:17:59;;;;;;;1.70;1.38;;;;;;;20.08;43.95;101543.84;5055730;28;20032;-90
2022/08/13 00:20:27;;;;;;;1.90;1.75;;;;;;;19.99;44.11;101536.34;5056264;28;20064;-91
2022/08/13 00:22:55;;;;;;;1.80;1.70;;;;;;;19.93;44.01;101532.19;5055255;28;20431;-90
2022/08/13 00:25:20;;;;;;;1.70;1.35;;;;;;;19.87;44.46;101540.38;5055802;28;20079;-90
2022/08/13 00:27:49;;;;;;;1.50;1.40;;;;;;;19.81;44.19;101538.84;5055877;28;20404;-91
2022/08/13 00:30:16;;;;;;;1.20;1.20;;;;;;;19.75;45.80;101542.59;5055803;28;20035;-91
2022/08/13 00:32:44;;;;;;;1.30;1.20;;;;;;;19.67;45.67;101539.41;5055977;28;20063;-90
2022/08/13 00:35:10;;;;;;;1.40;1.30;;;;;;;19.61;45.29;101537.06;5055601;28;20132;-90
2022/08/13 00:37:37;;;;;;;1.53;1.43;;;;;;;19.56;44.77;101541.66;5056053;28;20093;-91
2022/08/13 00:40:05;;;;;;;1.50;1.40;;;;;;;19.52;44.99;101538.28;5055696;28;20396;-91
2022/08/13 00:42:31;;;;;;;1.50;1.40;;;;;;;19.49;45.32;101534.94;5055502;28;20029;-91
2022/08/13 00:44:56;;;;;;;1.38;1.27;;;;;;;19.45;45.10;101535.06;5055625;28;20381;-90
2022/08/13 00:50:11;;;;;;;1.50;1.40;;;;;;;19.41;45.11;101543.16;5055673;28;20645;-90
2022/08/13 00:52:39;;;;;;;1.17;1.17;;;;;;;19.39;45.00;101544.97;5055228;28;20084;-91
2022/08/13 00:55:08;;;;;;;1.55;1.45;;;;;;;19.36;45.41;101545.97;5055140;28;20025;-90
2022/08/13 00:57:35;;;;;;;1.10;1.10;;;;;;;19.32;46.28;101544.38;5055133;28;20025;-91
2022/08/13 01:00:07;;;;;;;1.20;1.20;;;;;;;19.27;46.61;101544.56;5054551;28;20264;-90
2022/08/13 01:02:32;;;;;;;1.60;1.50;;;;;;;19.22;46.10;101549.19;5035692;28;20068;-90
2022/08/13 01:04:57;;;;;;;1.27;1.13;;;;;;;19.18;45.59;101549.38;5035439;28;20021;-90
2022/08/13 01:07:24;;;;;;;1.17;1.17;;;;;;;19.11;47.21;101546.97;5035233;28;20033;-91
2022/08/13 01:09:50;;;;;;;1.20;1.20;;;;;;;19.07;46.83;101541.88;5034936;28;20434;-91
2022/08/13 01:12:15;;;;;;;1.23;1.23;;;;;;;19.02;46.33;101538.59;5035011;28;20167;-91
2022/08/13 01:14:42;;;;;;;1.60;1.50;;;;;;;19.02;45.97;101549.13;5035206;28;20036;-91
2022/08/13 01:17:10;;;;;;;1.40;1.30;;;;;;;19.02;46.70;101549.13;5035047;28;20101;-91
2022/08/13 01:19:36;;;;;;;1.40;1.30;;;;;;;18.99;47.28;101547.44;5035330;28;20132;-90
2022/08/13 01:22:02;;;;;;;1.58;1.48;;;;;;;18.96;48.17;101542.31;5035233;28;20025;-90
2022/08/13 01:24:28;;;;;;;1.50;1.40;;;;;;;18.93;46.17;101540.66;5054936;28;20423;-91
2022/08/13 01:26:55;;;;;;;1.50;1.40;;;;;;;18.94;46.67;101544.16;5054705;28;20025;-90
2022/08/13 01:29:21;;;;;;;2.17;1.27;;;;;;;18.91;46.82;101547.75;5054595;28;20033;-90
2022/08/13 01:31:47;;;;;;;1.40;1.30;;;;;;;18.87;48.79;101554.03;5055135;28;20032;-91
2022/08/13 01:34:15;;;;;;;1.33;1.27;;;;;;;18.86;46.74;101556.72;5053699;28;20067;-91
2022/08/13 01:36:42;;;;;;;1.50;1.40;;;;;;;18.81;49.14;101543.72;5054303;28;20048;-90
2022/08/13 01:39:10;;;;;;;1.30;1.30;;;;;;;18.76;47.05;101545.69;5054507;28;20106;-91
2022/08/13 01:41:36;;;;;;;1.45;1.40;;;;;;;18.73;47.48;101557.19;5054632;28;20346;-91
2022/08/13 01:44:06;;;;;;;1.45;1.35;;;;;;;18.68;47.47;101545.97;5054282;28;20083;-91
2022/08/13 01:50:29;;;;;;;1.30;1.20;;;;;;;18.65;48.17;101548.72;5054973;28;20021;-90
2022/08/13 01:52:05;;;;;;;1.23;1.20;;;;;;;18.58;47.98;101548.09;5054536;28;20396;-91
2022/08/13 01:54:32;;;;;;;1.55;1.45;;;;;;;18.54;48.52;101538.63;5054640;28;20079;-90
2022/08/13 01:57:02;;;;;;;1.23;1.23;;;;;;;18.49;48.00;101538.81;5054206;28;20469;-91
2022/08/13 01:59:28;;;;;;;1.60;1.50;;;;;;;18.49;49.61;101537.94;5054974;28;20363;-91
2022/08/13 02:01:55;;;;;;;1.35;1.25;;;;;;;18.48;47.63;101538.84;5054088;28;20024;-90
2022/08/13 02:04:21;;;;;;;1.50;1.40;;;;;;;18.47;48.33;101545.00;5053876;28;20441;-91
2022/08/13 02:06:47;;;;;;;1.38;1.38;;;;;;;18.46;47.59;101546.81;5054217;28;20017;-91
2022/08/13 02:09:12;;;;;;;1.50;1.40;;;;;;;18.43;49.09;101546.91;5054084;28;20043;-91
2022/08/13 02:11:38;;;;;;;1.50;1.40;;;;;;;18.39;48.24;101545.31;5054169;28;20279;-91
2022/08/13 02:14:05;;;;;;;1.27;1.27;;;;;;;18.37;49.33;101544.53;5054066;28;20032;-91
2022/08/13 02:16:33;;;;;;;1.40;1.30;;;;;;;18.35;48.62;101543.72;5054502;28;20158;-90
2022/08/13 02:19:00;;;;;;;1.48;1.38;;;;;;;18.32;48.51;101542.06;5053728;28;20025;-90
2022/08/13 02:21:30;;;;;;;1.50;1.40;;;;;;;18.31;49.34;101542.09;5053869;28;20033;-91
2022/08/13 02:23:57;;;;;;;1.33;1.30;;;;;;;18.29;48.15;101539.53;5053865;28;20029;-90
2022/08/13 02:26:24;;;;;;;1.40;1.40;;;;;;;18.28;47.82;101539.59;5053764;28;20058;-90
2022/08/13 02:28:54;;;;;;;1.40;1.30;;;;;;;18.26;48.87;101547.53;5053852;28;20048;-90
2022/08/13 02:31:21;;;;;;;1.08;1.08;;;;;;;18.23;49.02;101545.03;5053590;28;20432;-91
2022/08/13 02:33:46;;;;;;;1.13;1.10;;;;;;;18.19;48.89;101546.03;5053858;28;20078;-90
2022/08/13 02:36:12;;;;;;;1.30;1.30;;;;;;;18.17;49.77;101550.50;5053641;28;20044;-91
2022/08/13 02:38:38;;;;;;;1.20;1.20;;;;;;;18.13;49.08;101547.13;5053386;28;20025;-91
2022/08/13 02:43:50;;;;;;;1.42;1.33;;;;;;;18.06;48.86;101543.00;5053959;28;20035;-90
2022/08/13 02:46:17;;;;;;;1.23;1.23;;;;;;;18.03;49.83;101546.59;5053357;28;20036;-91
2022/08/13 02:48:42;;;;;;;;;;;;;;;18.00;49.41;101545.84;5053938;28;20021;-91
2022/08/13 02:51:11;;;;;;;1.60;1.50;;;;;;;17.96;49.00;101542.44;5053765;28;19912;-91
2022/08/13 02:53:38;;;;;;;1.40;1.40;;;;;;;17.94;49.72;101540.78;5053464;28;20033;-91
2022/08/13 02:56:08;;;;;;;1.40;1.40;;;;;;;17.93;49.49;101545.16;5053217;28;20025;-91
2022/08/13 02:58:34;;;;;;;1.73;1.40;;;;;;;17.92;49.63;101551.31;5053829;28;20028;-91
2022/08/13 03:01:02;;;;;;;1.58;1.48;;;;;;;17.89;49.12;101549.66;5053025;28;20033;-91
2022/08/13 03:03:28;;;;;;;1.30;1.30;;;;;;;17.86;49.07;101546.28;5033494;28;20517;-91
2022/08/13 03:05:53;;;;;;;1.40;1.30;;;;;;;17.83;50.38;101549.03;5033503;28;20053;-90
2022/08/13 03:08:19;;;;;;;1.40;1.30;;;;;;;17.82;49.08;101542.94;5033507;28;20036;-90
2022/08/13 03:10:45;;;;;;;1.10;1.10;;;;;;;17.79;49.48;101536.94;5033131;28;20036;-90
2022/08/13 03:13:23;;;;;;;1.50;1.40;;;;;;;17.78;49.64;101545.72;5033179;28;20029;-89
2022/08/13 03:15:52;;;;;;;1.25;1.15;;;;;;;17.74;49.27;101551.06;5033003;28;20549;-90
2022/08/13 03:18:18;;;;;;;1.40;1.30;;;;;;;17.71;51.39;101542.44;5033760;28;20422;-90
2022/08/13 03:20:43;;;;;;;1.47;1.37;;;;;;;17.67;49.49;101546.94;5033117;28;20048;-90
2022/08/13 03:23:09;;;;;;;1.30;1.20;;;;;;;17.65;50.17;101543.50;5033716;28;20120;-91
2022/08/13 03:25:35;;;;;;;1.30;1.20;;;;;;;17.64;50.04;101548.78;5048956;28;20047;-89
2022/08/13 03:28:01;;;;;;;1.70;1.60;;;;;;;17.60;50.08;101550.66;5052783;28;20082;-88
2022/08/13 03:30:28;;;;;;;3.20;2.28;;;;;;;17.59;51.94;101546.31;5053413;28;20463;-91
2022/08/13 03:32:54;;;;;;;2.10;1.92;;;;;;;17.60;50.36;101548.03;5052709;28;20025;-90
2022/08/13 03:35:21;;;;;;;1.60;1.50;;;;;;;17.59;50.75;101549.81;5052970;28;20053;-90
2022/08/13 03:37:49;;;;;;;1.80;1.70;;;;;;;17.58;50.02;101547.22;5053113;28;20025;-90
2022/08/13 03:40:16;;;;;;;1.90;1.80;;;;;;;17.58;49.86;101550.72;5052884;28;20103;-91
2022/08/13 03:42:42;;;;;;;2.17;2.00;;;;;;;17.57;50.91;101549.00;5053100;28;20052;-90
2022/08/13 03:45:10;;;;;;;1.92;1.83;;;;;;;17.58;50.72;101552.47;5053162;28;20024;-90
2022/08/13 03:47:36;;;;;;;1.52;1.42;;;;;;;17.56;50.57;101551.69;5053707;28;20032;-90
2022/08/13 03:50:04;;;;;;;1.52;1.42;;;;;;;17.52;50.85;101550.06;5052548;28;20021;-91
2022/08/13 03:52:30;;;;;;;1.50;1.40;;;;;;;17.48;50.39;101553.69;5053256;28;20055;-90
2022/08/13 03:54:56;;;;;;;1.70;1.60;;;;;;;17.44;50.14;101547.69;5052542;28;20037;-90
2022/08/13 03:57:22;;;;;;;1.65;1.55;;;;;;;17.41;50.82;101548.66;5054243;28;20540;-89
2022/08/13 03:59:49;;;;;;;1.55;1.45;;;;;;;17.39;51.46;101542.59;5056822;28;20025;-90
2022/08/13 04:02:16;;;;;;;1.33;1.33;;;;;;;17.33;51.75;101542.81;5056539;28;20035;-90
2022/08/13 04:04:46;;;;;;;1.50;1.40;;;;;;;17.27;51.36;101543.88;5055834;28;20435;-91
2022/08/13 04:07:14;;;;;;;1.35;1.30;;;;;;;17.25;53.29;101539.56;5056442;28;20036;-89
2022/08/13 04:09:40;;;;;;;2.10;1.90;;;;;;;17.23;51.67;101538.75;5056178;28;20017;-89
2022/08/13 04:12:09;;;;;;;1.20;1.20;;;;;;;17.23;51.95;101544.88;5056085;28;20032;-90
2022/08/13 04:14:34;;;;;;;1.63;1.52;;;;;;;17.24;51.09;101537.84;5056320;28;20037;-89
2022/08/13 04:17:00;;;;;;;1.60;1.50;;;;;;;17.24;52.91;101538.72;5055403;28;20036;-90
2022/08/13 04:19:26;;;;;;;1.77;1.67;;;;;;;17.21;51.44;101540.59;5055470;28;20385;-89
2022/08/13 04:21:52;;;;;;;1.83;1.60;;;;;;;17.18;51.05;101541.50;5055155;28;20025;-88
2022/08/13 04:24:18;;;;;;;1.70;1.60;;;;;;;17.18;51.53;101543.28;5055551;28;20039;-89
2022/08/13 04:26:45;;;;;;;1.40;1.40;;;;;;;17.16;52.24;101545.97;5055801;28;20029;-89
2022/08/13 04:29:11;;;;;;;2.17;1.70;;;;;;;17.14;50.70;101545.16;5055067;28;20096;-90
2022/08/13 04:31:36;;;;;;;2.05;1.90;;;;;;;17.11;52.36;101548.72;5055256;28;20029;-89
2022/08/13 04:34:01;;;;;;;1.60;1.50;;;;;;;17.08;51.98;101545.34;5055040;28;20382;-89
2022/08/13 04:36:27;;;;;;;1.80;1.70;;;;;;;17.04;52.97;101547.19;5055199;28;20040;-89
2022/08/13 04:38:52;;;;;;;1.60;1.50;;;;;;;17.02;51.87;101546.38;5054242;28;20021;-88
2022/08/13 04:41:17;;;;;;;1.50;1.43;;;;;;;17.02;52.25;101550.78;5055463;28;20064;-89
2022/08/13 04:43:43;;;;;;;1.60;1.50;;;;;;;16.98;52.97;101558.75;5055146;28;20025;-91
2022/08/13 04:46:08;;;;;;;1.70;1.60;;;;;;;16.93;53.96;101547.53;5054618;28;20039;-89
2022/08/13 04:48:34;;;;;;;1.73;1.63;;;;;;;16.93;53.02;101557.13;5055721;28;20052;-89
2022/08/13 04:50:59;;;;;;;1.50;1.40;;;;;;;16.93;54.26;101547.53;5054990;28;20017;-89
2022/08/13 04:53:31;;;;;;;1.50;1.40;;;;;;;16.91;52.64;101553.69;5054563;28;20039;-89
2022/08/13 04:55:57;;;;;;;1.55;1.45;;;;;;;16.90;52.13;101557.22;5054563;28;20021;-90
2022/08/13 04:58:24;;;;;;;1.70;1.60;;;;;;;16.88;52.99;101556.44;5054826;28;20029;-89
2022/08/13 05:00:50;;;;;;;2.10;1.77;;;;;;;16.86;54.35;101556.47;5054434;28;20029;-88
2022/08/13 05:03:18;;;;;;;1.80;1.70;;;;;;;16.85;53.15;101557.38;5054982;28;20082;-89
2022/08/13 05:05:46;;;;;;;1.50;1.40;;;;;;;16.89;52.80;101558.16;5055185;28;20013;-89
2022/08/13 05:08:14;;;;;;;2.00;1.90;;;;;;;16.91;54.01;101559.81;5053945;28;20037;-89
2022/08/13 05:10:39;;;;;;;2.40;2.20;;;;;;;16.93;53.64;101563.25;5055197;28;20052;-89
2022/08/13 05:13:30;;;;;;;2.70;2.20;;;;;;;16.97;54.17;101558.81;5054301;28;20021;-89
2022/08/13 05:15:58;;;;;;;2.15;1.95;;;;;;;17.00;53.86;101563.09;5055005;28;20066;-90
2022/08/13 05:18:25;;;;;;;3.75;3.30;;;;;;;17.01;54.24;101559.56;5054804;28;20104;-89
2022/08/13 05:20:52;;;;;;;;;;;;;;;17.06;53.94;101561.13;5054507;28;20041;-90
2022/08/13 05:23:19;;;;;;;4.70;3.67;;;;;;;17.09;56.09;101560.16;5055052;28;20261;-90
2022/08/13 05:25:45;;;;;;;4.03;2.88;;;;;;;17.14;54.08;101566.16;5055164;28;20024;-89
2022/08/13 05:28:11;;;;;;;2.60;2.40;;;;;;;17.16;54.30;101569.59;5054381;28;20027;-89
2022/08/13 05:30:39;;;;;;;3.30;2.97;;;;;;;17.18;54.63;101559.03;5054463;28;20380;-90
2022/08/13 05:33:22;;;;;;;2.50;2.30;;;;;;;17.20;53.98;101567.72;5054557;28;20025;-89
2022/08/13 05:35:50;;;;;;;3.05;2.60;;;;;;;17.24;56.08;101572.81;5053882;28;20036;-89
2022/08/13 05:38:17;;;;;;;6.78;3.80;;;;;;;17.28;55.70;101570.94;5054469;28;20021;-90
2022/08/13 05:40:43;;;;;;;4.03;3.10;;;;;;;17.34;54.97;101573.34;5054894;28;20092;-89
2022/08/13 05:43:13;;;;;;;5.35;3.40;;;;;;;17.40;54.68;101567.94;5053851;28;20120;-89
2022/08/13 05:45:41;;;;;;;3.95;3.00;;;;;;;17.44;54.04;101574.81;5054308;28;20033;-89
2022/08/13 05:48:07;;;;;;;4.43;3.30;;;;;;;17.49;54.46;101561.53;5053513;28;20553;-89
2022/08/13 05:50:33;;;;;;;4.67;3.53;;;;;;;17.54;55.80;101567.47;5054267;28;20108;-90
2022/08/13 05:53:10;;;;;;;3.67;2.80;;;;;;;17.62;54.90;101567.22;5054156;28;20029;-92
2022/08/13 05:55:38;;;;;;;3.53;2.90;;;;;;;17.65;54.64;101567.13;5053617;28;20090;-83
2022/08/13 05:58:05;;;;;;;4.05;2.63;;;;;;;17.68;54.34;101569.63;5053450;28;20147;-87
2022/08/13 06:03:25;;;;;;;2.53;2.27;;;;;;;17.78;53.33;101571.97;5053561;28;20040;-86
2022/08/13 06:06:02;;;;;;;2.63;2.42;;;;;;;17.86;53.10;101565.53;5053018;28;20389;-87
2022/08/13 06:08:29;;;;;;;4.05;2.88;;;;;;;17.95;53.10;101571.38;5053719;28;20024;-87
2022/08/13 06:10:59;;;;;;;2.97;2.67;;;;;;;18.02;54.18;101568.50;5052846;28;20029;-87
2022/08/13 06:13:26;;;;;;;3.33;2.50;;;;;;;18.06;55.68;101575.38;5053306;28;20124;-87
2022/08/13 06:15:58;;;;;;;2.72;2.38;;;;;;;18.13;54.58;101565.50;5052430;28;20025;-87
2022/08/13 06:18:32;;;;;;;4.75;2.80;;;;;;;18.20;55.34;101568.78;5052006;28;20024;-87
2022/08/13 06:21:00;;;;;;;5.15;3.33;;;;;;;18.28;55.71;101560.63;5052258;28;20539;-87
2022/08/13 06:23:30;;;;;;;4.25;2.95;;;;;;;18.37;54.15;101562.91;5052825;28;20049;-87
2022/08/13 06:25:58;;;;;;;4.40;3.30;;;;;;;18.45;53.83;101560.84;5053140;28;20021;-87
2022/08/13 06:28:26;;;;;;;3.00;2.65;;;;;;;18.53;54.09;101563.19;5052720;28;20028;-87
2022/08/13 06:30:58;;;;;;;3.00;2.50;;;;;;;18.61;52.10;101569.03;5052299;28;20500;-87
2022/08/13 06:33:25;;;;;;;3.50;2.63;;;;;;;18.71;52.75;101559.03;5053074;28;20529;-87
2022/08/13 06:35:56;;;;;;;3.42;2.80;;;;;;;18.78;53.67;101564.91;5052753;28;20367;-86
2022/08/13 06:38:26;;;;;;;3.30;2.67;;;;;;;18.88;52.82;101571.53;5052522;28;20462;-88
2022/08/13 06:40:54;;;;;;;2.78;2.58;;;;;;;18.96;52.74;101566.84;5052499;28;20032;-87
2022/08/13 06:43:19;;;;;;;3.05;2.50;;;;;;;19.07;51.96;101576.97;5052824;28;20102;-87
2022/08/13 06:45:48;;;;;;;3.90;2.70;;;;;;;19.16;52.37;101574.88;5052458;28;20398;-87
2022/08/13 06:48:14;;;;;;;2.60;2.40;;;;;;;19.25;52.19;101572.72;5052856;28;20021;-80
2022/08/13 06:50:40;;;;;;;;;;;;;;;19.35;51.06;101562.69;5053163;28;20021;-90
2022/08/13 06:53:06;;;;;;;2.50;2.30;;;;;;;19.49;53.19;101571.78;5050867;28;19938;-85
2022/08/13 06:55:36;;;;;;;;;;;;;;;20.59;53.07;101567.91;5052794;28;20082;-85
2022/08/13 06:58:04;;;;;;;2.95;2.40;;;;;;;23.34;48.83;101567.13;5052110;28;19915;-85
2022/08/13 07:00:30;;;;;;;2.63;2.08;;;;;;;26.30;43.78;101575.81;5051749;28;20488;-85
2022/08/13 07:02:58;;;;;;;2.10;1.90;;;;;;;28.70;40.37;101570.31;5051469;28;20029;-84
2022/08/13 07:05:43;;;;;;;2.00;1.90;;;;;;;30.80;35.30;101566.84;5052159;28;20025;-87
2022/08/13 07:08:11;;;;;;;2.40;2.22;;;;;;;32.04;31.11;101574.19;5052998;28;20518;-89
2022/08/13 07:11:21;;;;;;;2.47;2.15;;;;;;;33.09;30.84;101569.38;5051881;28;20025;-89
2022/08/13 07:13:44;;;;;;;2.33;2.00;;;;;;;33.63;29.57;101576.53;5029074;28;20072;-87
2022/08/13 07:16:17;;;;;;;2.63;2.22;;;;;;;33.90;28.57;101573.84;5049861;28;20044;-89
2022/08/13 07:18:59;;;;;;;2.53;2.33;;;;;;;33.18;29.49;101588.25;5052843;28;20021;-87
2022/08/13 07:21:26;;;;;;;2.50;2.30;;;;;;;32.18;30.39;101583.59;5048802;28;20033;-88
2022/08/13 07:23:53;;;;;;;3.33;2.20;;;;;;;31.05;32.04;101578.00;5051811;28;20033;-88
2022/08/13 07:26:20;;;;;;;2.33;2.13;;;;;;;29.87;33.55;101581.13;5052823;28;20045;-94
2022/08/13 07:29:00;;;;;;;2.45;2.30;;;;;;;28.85;35.05;101575.38;5051813;28;20028;-88
2022/08/13 07:31:28;;;;;;;3.95;2.50;;;;;;;27.81;36.34;101573.69;5051951;28;20033;-87
2022/08/13 07:33:56;;;;;;;5.03;2.50;;;;;;;27.07;37.74;101579.22;5054121;28;20104;-87
2022/08/13 07:36:24;;;;;;;2.67;2.42;;;;;;;26.40;37.81;101573.34;5054711;28;20036;-87
2022/08/13 07:38:49;;;;;;;3.30;3.00;;;;;;;26.01;39.06;101577.81;5053988;28;20032;-87
2022/08/13 07:41:15;;;;;;;3.25;2.40;;;;;;;25.63;39.39;101584.81;5055050;28;20029;-91
2022/08/13 07:43:44;;;;;;;2.67;2.40;;;;;;;25.37;39.47;101587.38;5056049;28;20021;-87
2022/08/13 07:46:12;;;;;;;3.55;2.10;;;;;;;25.23;40.71;101582.13;5056048;28;20284;-87
2022/08/13 07:48:40;;;;;;;2.10;2.00;;;;;;;25.09;40.14;101575.94;5055881;28;20021;-87
2022/08/13 07:51:10;;;;;;;2.10;2.00;;;;;;;24.99;40.26;101577.50;5055335;28;20036;-86
2022/08/13 07:53:38;;;;;;;2.30;2.10;;;;;;;24.91;40.81;101577.09;5055435;28;20465;-86
2022/08/13 07:56:06;;;;;;;3.40;2.20;;;;;;;24.89;41.74;101571.91;5054767;28;20024;-86
2022/08/13 07:58:33;;;;;;;2.30;2.10;;;;;;;24.91;40.62;101580.63;5055721;28;20025;-86
2022/08/13 08:00:59;;;;;;;1.70;1.60;;;;;;;24.95;41.46;101579.47;5055308;28;20021;-86
2022/08/13 08:03:32;;;;;;;1.90;1.80;;;;;;;25.01;40.17;101578.22;5055188;28;20028;-89
2022/08/13 08:05:59;;;;;;;1.88;1.77;;;;;;;25.05;40.92;101581.53;5055459;28;20053;-87
2022/08/13 08:08:26;;;;;;;1.80;1.70;;;;;;;25.13;41.05;101580.06;5055122;28;20033;-84
2022/08/13 08:10:53;;;;;;;2.20;2.00;;;;;;;25.17;40.85;101582.53;5054059;28;20102;-83
2022/08/13 08:13:19;;;;;;;2.40;2.20;;;;;;;25.21;41.09;101584.03;5055080;28;20363;-85
2022/08/13 08:15:44;;;;;;;2.20;2.00;;;;;;;25.23;41.32;101585.63;5055002;28;20035;-84
2022/08/13 08:18:10;;;;;;;2.10;1.90;;;;;;;25.28;41.18;101588.00;5054471;28;20397;-85
2022/08/13 08:20:36;;;;;;;2.10;2.00;;;;;;;25.32;41.05;101584.19;5054999;28;20027;-85
2022/08/13 08:23:01;;;;;;;2.77;1.90;;;;;;;25.38;41.49;101588.25;5054308;28;20017;-85
2022/08/13 08:25:27;;;;;;;1.98;1.85;;;;;;;25.48;41.37;101586.69;5055047;28;20029;-85
2022/08/13 08:27:52;;;;;;;2.58;2.00;;;;;;;25.56;40.81;101586.16;5054313;28;20031;-85
2022/08/13 08:30:20;;;;;;;2.10;1.87;;;;;;;25.66;41.04;101587.28;5054026;28;20029;-85
2022/08/13 08:32:51;;;;;;;2.42;2.05;;;;;;;25.75;39.55;101591.97;5054907;28;20036;-85
2022/08/13 08:35:16;;;;;;;2.33;2.15;;;;;;;25.80;39.51;101586.31;5054380;28;20080;-84
2022/08/13 08:43:12;;;;;;;1.90;1.80;;;;;;;26.06;40.26;101589.84;5054142;28;20552;-84
2022/08/13 08:45:40;;;;;;;2.08;1.80;;;;;;;26.21;39.76;101587.09;5054952;28;20025;-90
2022/08/13 08:48:06;;;;;;;2.00;1.90;;;;;;;26.35;39.57;101592.28;5055244;28;20021;-88
2022/08/13 08:50:32;;;;;;;1.90;1.80;;;;;;;26.45;38.59;101589.00;5054442;28;20465;-88
2022/08/13 08:55:43;;;;;;;1.90;1.80;;;;;;;26.64;39.25;101592.03;5055742;28;20048;-91
2022/08/13 08:58:10;;;;;;;1.80;1.70;;;;;;;26.84;39.26;101589.75;5055321;28;20082;-90
2022/08/13 09:00:36;;;;;;;5.00;2.42;;;;;;;26.89;35.26;101584.97;5055987;28;20124;-91
2022/08/13 09:03:03;;;;;;;2.28;2.08;;;;;;;26.94;37.10;101577.47;5054999;28;20465;-90
2022/08/13 09:05:29;;;;;;;2.10;2.00;;;;;;;27.05;38.45;101576.69;5055513;28;20029;-91
2022/08/13 09:07:55;;;;;;;2.08;1.92;;;;;;;27.23;38.04;101582.47;5055468;28;20107;-92
2022/08/13 09:10:22;;;;;;;2.40;1.85;;;;;;;27.41;36.17;101577.56;5055235;28;20032;-90
2022/08/13 09:12:50;;;;;;;1.70;1.60;;;;;;;27.51;37.26;101579.56;5054755;28;20021;-90
2022/08/13 09:15:22;;;;;;;1.60;1.50;;;;;;;27.66;38.31;101580.22;5055504;28;20112;-91
2022/08/13 09:17:50;;;;;;;1.60;1.50;;;;;;;27.82;37.58;101578.03;5054871;28;20043;-91
2022/08/13 09:20:21;;;;;;;1.48;1.38;;;;;;;27.96;37.84;101566.31;5055121;28;20020;-90
2022/08/13 09:22:48;;;;;;;1.55;1.35;;;;;;;28.14;35.90;101572.06;5055441;28;20118;-91
2022/08/13 09:25:16;;;;;;;1.45;1.30;;;;;;;28.25;36.46;101565.03;5055177;28;20112;-90
2022/08/13 09:27:46;;;;;;;1.60;1.50;;;;;;;28.37;36.69;101574.72;5055193;28;20041;-89
2022/08/13 09:30:13;;;;;;;2.67;1.50;;;;;;;28.44;35.19;101573.25;5054686;28;20033;-91
2022/08/13 09:32:39;;;;;;;1.45;1.35;;;;;;;28.56;35.54;101574.06;5054936;28;20025;-90
2022/08/13 09:35:05;;;;;;;;;;;;;;;28.66;35.08;101577.69;5054217;28;20097;-90
2022/08/13 09:37:31;;;;;;;1.52;1.42;;;;;;;28.77;35.66;101573.34;5055137;28;19947;-90
2022/08/13 09:40:08;;;;;;;1.08;1.08;;;;;;;28.91;35.16;101561.53;5054708;28;20029;-92
2022/08/13 09:42:56;;;;;;;1.42;1.33;;;;;;;29.03;34.91;101568.53;5055230;28;20037;-91
2022/08/13 09:45:24;;;;;;;1.80;1.70;;;;;;;29.09;34.01;101567.19;5055286;28;20028;-92
2022/08/13 09:47:49;;;;;;;1.88;1.77;;;;;;;29.13;32.97;101569.47;5054783;28;20025;-89
2022/08/13 09:50:14;;;;;;;;;;;;;;;29.17;34.09;101562.03;5055448;28;20450;-92
2022/08/13 09:52:39;;;;;;;1.90;1.80;;;;;;;29.29;32.97;101562.81;5054272;28;19912;-91
2022/08/13 09:55:05;;;;;;;;;;;;;;;29.41;30.92;101561.81;5052978;28;20499;-89
2022/08/13 09:57:30;;;;;;;2.10;1.90;;;;;;;29.43;31.30;101554.53;5054081;28;19970;-90
2022/08/13 09:59:56;;;;;;;;;;;;;;;29.54;32.65;101553.63;5054735;28;20021;-92
2022/08/13 10:02:21;;;;;;;;;;;;;;;29.71;32.65;101556.66;5054774;28;20370;-90
2022/08/13 10:04:55;;;;;;;1.80;1.70;;;;;;;29.86;32.88;101551.81;5054283;28;19912;-88
2022/08/13 10:07:20;;;;;;;1.83;1.60;;;;;;;30.02;32.51;101549.53;5054768;28;20033;-91
2022/08/13 10:09:45;;;;;;;;;;;;;;;30.13;30.60;101550.44;5055140;28;20404;-93
2022/08/13 10:12:13;;;;;;;;;;;;;;;30.22;30.96;101544.25;5054556;28;19913;-92
2022/08/13 10:14:39;;;;;;;2.00;1.90;;;;;;;30.29;29.57;101541.88;5054831;28;19912;-90
2022/08/13 10:17:04;;;;;;;;;;;;;;;30.35;30.71;101539.50;5054549;28;20129;-91
2022/08/13 10:19:30;;;;;;;;;;;;;;;30.45;28.82;101526.16;5055567;28;20007;-93
2022/08/13 10:21:55;;;;;;;2.00;1.80;;;;;;;30.50;29.45;101539.13;5053726;28;19959;-86
2022/08/13 10:24:20;;;;;;;;;;;;;;;30.62;29.87;101531.84;5053088;28;20302;-89
2022/08/13 10:26:46;;;;;;;1.80;1.70;;;;;;;30.75;29.34;101531.56;5053903;28;19964;-92
2022/08/13 10:29:11;;;;;;;3.08;1.92;;;;;;;30.72;27.37;101527.34;5054251;28;20385;-92
2022/08/13 10:31:37;;;;;;;2.10;2.00;;;;;;;30.69;26.72;101527.59;5054129;28;20025;-90
2022/08/13 10:34:04;;;;;;;1.80;1.70;;;;;;;30.79;27.96;101527.63;5053998;28;20465;-90
2022/08/13 10:36:30;;;;;;;1.90;1.60;;;;;;;30.93;28.25;101529.91;5053585;28;20041;-92
2022/08/13 10:38:56;;;;;;;1.33;1.30;;;;;;;31.05;28.84;101522.53;5054018;28;20159;-93
2022/08/13 10:41:22;;;;;;;1.40;1.40;;;;;;;31.22;28.76;101525.53;5054189;28;20083;-88
2022/08/13 10:43:49;;;;;;;1.20;1.20;;;;;;;31.34;28.45;101521.72;5054229;28;20032;-91
2022/08/13 10:46:16;;;;;;;1.33;1.30;;;;;;;31.45;28.33;101526.06;5053579;28;20039;-92
2022/08/13 10:48:43;;;;;;;1.25;1.20;;;;;;;31.56;26.13;101520.50;5053752;28;20021;-92
2022/08/13 10:51:09;;;;;;;1.50;1.40;;;;;;;31.60;27.27;101522.91;5053061;28;20025;-89
2022/08/13 10:56:18;;;;;;;1.55;1.45;;;;;;;31.73;25.88;101513.56;5052888;28;20036;-90
2022/08/13 10:58:44;;;;;;;1.60;1.50;;;;;;;31.73;26.74;101512.75;5052880;28;20412;-90
2022/08/13 11:01:10;;;;;;;1.30;1.30;;;;;;;31.83;27.53;101513.53;5052970;28;20033;-89
2022/08/13 11:03:36;;;;;;;1.63;1.50;;;;;;;31.94;26.65;101508.97;5052826;28;20032;-87
2022/08/13 11:06:04;;;;;;;1.60;1.50;;;;;;;31.96;25.71;101509.69;5050266;28;20100;-90
2022/08/13 11:08:37;;;;;;;1.58;1.48;;;;;;;32.01;26.77;101510.94;5057833;28;20021;-92
2022/08/13 11:11:04;;;;;;;1.70;1.60;;;;;;;32.18;24.74;101514.66;5056530;28;20044;-89
2022/08/13 11:13:31;;;;;;;1.60;1.50;;;;;;;32.31;24.20;101516.16;5057644;28;20051;-96
2022/08/13 11:15:58;;;;;;;1.40;1.40;;;;;;;32.40;26.00;101512.56;5058394;28;20025;-92
2022/08/13 11:18:26;;;;;;;1.50;1.40;;;;;;;32.39;24.65;101504.66;5057363;28;20024;-92
2022/08/13 11:21:06;;;;;;;2.08;1.80;;;;;;;32.28;24.73;101513.78;5056901;28;20028;-94
2022/08/13 11:23:32;;;;;;;1.70;1.60;;;;;;;32.17;23.35;101499.53;5057393;28;20465;-91
2022/08/13 11:25:58;;;;;;;1.75;1.65;;;;;;;32.23;24.84;101498.09;5057106;28;20033;-93
2022/08/13 11:28:23;;;;;;;1.17;1.17;;;;;;;32.40;26.20;101492.91;5057710;28;20094;-93
2022/08/13 11:30:50;;;;;;;1.33;1.23;;;;;;;32.59;25.27;101494.63;5057662;28;20028;-90
2022/08/13 11:33:17;;;;;;;1.50;1.40;;;;;;;32.71;25.67;101487.19;5056839;28;20037;-91
2022/08/13 11:35:43;;;;;;;1.17;1.17;;;;;;;32.83;25.32;101490.50;5057034;28;20055;-92
2022/08/13 11:38:11;;;;;;;0.93;0.93;;;;;;;32.91;24.39;101496.81;5056973;28;20021;-91
2022/08/13 11:40:37;;;;;;;1.60;1.50;;;;;;;32.91;24.33;101485.19;5057335;28;20100;-91
2022/08/13 11:43:03;;;;;;;1.45;1.35;;;;;;;32.93;23.01;101488.56;5056649;28;20044;-90
2022/08/13 11:45:28;;;;;;;1.30;1.30;;;;;;;33.01;25.58;101479.72;5057032;28;20021;-91
2022/08/13 11:47:53;;;;;;;1.33;1.30;;;;;;;33.07;24.01;101476.41;5056924;28;20031;-92
2022/08/13 11:50:19;;;;;;;1.03;1.03;;;;;;;33.15;25.85;101479.19;5057238;28;20291;-88
2022/08/13 11:52:44;;;;;;;2.15;1.60;;;;;;;33.32;24.67;101485.50;5057514;28;20311;-91